sensor_id;sensor_type;location;lat;lon;timestamp;P1;durP1;ratioP1;P2;durP2;ratioP2
6667;SDS011;3370;47.712;9.082;2023-02-23T00:01:57;38.10;;;23.67;;
6667;SDS011;3370;47.712;9.082;2023-02-23T00:04:30;40.30;;;23.83;;
6667;SDS011;3370;47.712;9.082;2023-02-23T00:06:56;37.73;;;23.73;;
6667;SDS011;3370;47.712;9.082;2023-02-23T00:09:22;38.97;;;23.17;;
6667;SDS011;3370;47.712;9.082;2023-02-23T00:11:52;48.70;;;23.00;;
6667;SDS011;3370;47.712;9.082;2023-02-23T00:14:20;39.30;;;23.87;;
6667;SDS011;3370;47.712;9.082;2023-02-23T00:16:55;37.70;;;23.30;;
6667;SDS011;3370;47.712;9.082;2023-02-23T00:19:21;38.50;;;24.33;;
6667;SDS011;3370;47.712;9.082;2023-02-23T00:21:49;38.33;;;24.90;;
6667;SDS011;3370;47.712;9.082;2023-02-23T00:24:15;38.47;;;22.87;;
6667;SDS011;3370;47.712;9.082;2023-02-23T00:26:45;40.10;;;23.83;;
6667;SDS011;3370;47.712;9.082;2023-02-23T00:29:13;41.20;;;25.53;;
6667;SDS011;3370;47.712;9.082;2023-02-23T00:35:22;37.20;;;22.93;;
6667;SDS011;3370;47.712;9.082;2023-02-23T00:37:49;42.87;;;22.97;;
6667;SDS011;3370;47.712;9.082;2023-02-23T00:40:15;37.60;;;23.40;;
6667;SDS011;3370;47.712;9.082;2023-02-23T00:42:44;34.00;;;23.67;;
6667;SDS011;3370;47.712;9.082;2023-02-23T00:45:12;35.97;;;22.50;;
6667;SDS011;3370;47.712;9.082;2023-02-23T00:47:39;42.17;;;23.50;;
6667;SDS011;3370;47.712;9.082;2023-02-23T00:50:10;35.03;;;22.97;;
6667;SDS011;3370;47.712;9.082;2023-02-23T00:52:41;35.00;;;22.90;;
6667;SDS011;3370;47.712;9.082;2023-02-23T00:55:09;33.17;;;22.30;;
6667;SDS011;3370;47.712;9.082;2023-02-23T00:57:37;32.07;;;20.67;;
6667;SDS011;3370;47.712;9.082;2023-02-23T01:00:04;31.97;;;21.03;;
6667;SDS011;3370;47.712;9.082;2023-02-23T01:02:45;29.27;;;20.20;;
6667;SDS011;3370;47.712;9.082;2023-02-23T01:05:12;31.10;;;22.50;;
6667;SDS011;3370;47.712;9.082;2023-02-23T01:07:38;33.10;;;22.30;;
6667;SDS011;3370;47.712;9.082;2023-02-23T01:10:05;37.10;;;22.77;;
6667;SDS011;3370;47.712;9.082;2023-02-23T01:12:44;31.23;;;21.10;;
6667;SDS011;3370;47.712;9.082;2023-02-23T01:15:14;35.53;;;21.30;;
6667;SDS011;3370;47.712;9.082;2023-02-23T01:17:42;36.40;;;22.53;;
6667;SDS011;3370;47.712;9.082;2023-02-23T01:20:12;31.77;;;19.83;;
6667;SDS011;3370;47.712;9.082;2023-02-23T01:22:47;37.27;;;21.47;;
6667;SDS011;3370;47.712;9.082;2023-02-23T01:25:16;33.30;;;21.37;;
6667;SDS011;3370;47.712;9.082;2023-02-23T01:27:43;33.43;;;21.30;;
6667;SDS011;3370;47.712;9.082;2023-02-23T01:30:11;33.80;;;21.70;;
6667;SDS011;3370;47.712;9.082;2023-02-23T01:32:39;33.23;;;20.50;;
6667;SDS011;3370;47.712;9.082;2023-02-23T01:35:09;36.90;;;22.17;;
6667;SDS011;3370;47.712;9.082;2023-02-23T01:37:37;34.13;;;22.63;;
6667;SDS011;3370;47.712;9.082;2023-02-23T01:40:06;31.57;;;21.23;;
6667;SDS011;3370;47.712;9.082;2023-02-23T01:42:38;35.87;;;24.30;;
6667;SDS011;3370;47.712;9.082;2023-02-23T01:45:23;36.90;;;23.00;;
6667;SDS011;3370;47.712;9.082;2023-02-23T01:47:52;40.27;;;24.43;;
6667;SDS011;3370;47.712;9.082;2023-02-23T01:50:25;35.83;;;23.10;;
6667;SDS011;3370;47.712;9.082;2023-02-23T01:52:55;36.97;;;23.40;;
6667;SDS011;3370;47.712;9.082;2023-02-23T01:55:23;35.30;;;22.33;;
6667;SDS011;3370;47.712;9.082;2023-02-23T01:57:53;37.50;;;24.00;;
6667;SDS011;3370;47.712;9.082;2023-02-23T02:00:26;32.43;;;21.47;;
6667;SDS011;3370;47.712;9.082;2023-02-23T02:02:53;36.57;;;23.10;;
6667;SDS011;3370;47.712;9.082;2023-02-23T02:05:19;32.27;;;22.97;;
6667;SDS011;3370;47.712;9.082;2023-02-23T02:07:46;35.90;;;21.80;;
6667;SDS011;3370;47.712;9.082;2023-02-23T02:10:14;34.63;;;22.70;;
6667;SDS011;3370;47.712;9.082;2023-02-23T02:12:41;35.23;;;22.80;;
6667;SDS011;3370;47.712;9.082;2023-02-23T02:15:17;43.43;;;23.13;;
6667;SDS011;3370;47.712;9.082;2023-02-23T02:27:12;35.73;;;23.13;;
6667;SDS011;3370;47.712;9.082;2023-02-23T02:44:58;40.20;;;22.50;;
6667;SDS011;3370;47.712;9.082;2023-02-23T02:47:34;37.83;;;24.47;;
6667;SDS011;3370;47.712;9.082;2023-02-23T02:52:58;37.90;;;22.97;;
6667;SDS011;3370;47.712;9.082;2023-02-23T02:55:33;34.23;;;22.13;;
6667;SDS011;3370;47.712;9.082;2023-02-23T02:58:04;37.30;;;21.83;;
6667;SDS011;3370;47.712;9.082;2023-02-23T03:00:36;38.57;;;22.37;;
6667;SDS011;3370;47.712;9.082;2023-02-23T03:06:26;36.50;;;22.20;;
6667;SDS011;3370;47.712;9.082;2023-02-23T03:12:10;31.77;;;20.97;;
6667;SDS011;3370;47.712;9.082;2023-02-23T03:31:14;31.83;;;21.27;;
6667;SDS011;3370;47.712;9.082;2023-02-23T03:34:59;38.00;;;23.00;;
6667;SDS011;3370;47.712;9.082;2023-02-23T03:37:59;36.00;;;24.50;;
6667;SDS011;3370;47.712;9.082;2023-02-23T03:40:56;34.97;;;22.83;;
6667;SDS011;3370;47.712;9.082;2023-02-23T03:43:46;28.90;;;20.07;;
6667;SDS011;3370;47.712;9.082;2023-02-23T03:46:37;35.90;;;22.73;;
6667;SDS011;3370;47.712;9.082;2023-02-23T03:49:24;31.10;;;21.00;;
6667;SDS011;3370;47.712;9.082;2023-02-23T03:52:15;31.67;;;20.73;;
6667;SDS011;3370;47.712;9.082;2023-02-23T03:55:11;35.20;;;21.47;;
6667;SDS011;3370;47.712;9.082;2023-02-23T03:58:01;30.27;;;21.97;;
6667;SDS011;3370;47.712;9.082;2023-02-23T04:00:51;38.03;;;22.63;;
6667;SDS011;3370;47.712;9.082;2023-02-23T04:03:41;32.33;;;21.77;;
6667;SDS011;3370;47.712;9.082;2023-02-23T04:06:30;32.53;;;21.63;;
6667;SDS011;3370;47.712;9.082;2023-02-23T04:09:22;32.70;;;22.47;;
6667;SDS011;3370;47.712;9.082;2023-02-23T04:15:37;29.97;;;20.00;;
6667;SDS011;3370;47.712;9.082;2023-02-23T04:18:15;30.87;;;20.17;;
6667;SDS011;3370;47.712;9.082;2023-02-23T04:20:46;30.90;;;22.17;;
6667;SDS011;3370;47.712;9.082;2023-02-23T04:23:11;31.57;;;21.23;;
6667;SDS011;3370;47.712;9.082;2023-02-23T04:25:37;40.80;;;23.07;;
6667;SDS011;3370;47.712;9.082;2023-02-23T04:28:03;35.63;;;22.33;;
6667;SDS011;3370;47.712;9.082;2023-02-23T04:30:29;33.60;;;22.47;;
6667;SDS011;3370;47.712;9.082;2023-02-23T04:32:55;40.17;;;23.27;;
6667;SDS011;3370;47.712;9.082;2023-02-23T04:35:23;38.80;;;22.80;;
6667;SDS011;3370;47.712;9.082;2023-02-23T04:37:51;36.30;;;22.83;;
6667;SDS011;3370;47.712;9.082;2023-02-23T04:40:17;42.57;;;23.70;;
6667;SDS011;3370;47.712;9.082;2023-02-23T04:42:43;41.07;;;24.17;;
6667;SDS011;3370;47.712;9.082;2023-02-23T04:45:09;37.97;;;23.50;;
6667;SDS011;3370;47.712;9.082;2023-02-23T04:47:35;41.23;;;24.50;;
6667;SDS011;3370;47.712;9.082;2023-02-23T04:50:01;40.03;;;23.70;;
6667;SDS011;3370;47.712;9.082;2023-02-23T04:52:28;36.10;;;22.93;;
6667;SDS011;3370;47.712;9.082;2023-02-23T04:54:55;36.00;;;22.80;;
6667;SDS011;3370;47.712;9.082;2023-02-23T04:57:21;35.87;;;22.30;;
6667;SDS011;3370;47.712;9.082;2023-02-23T04:59:47;31.37;;;22.47;;
6667;SDS011;3370;47.712;9.082;2023-02-23T05:02:13;31.80;;;22.63;;
6667;SDS011;3370;47.712;9.082;2023-02-23T05:04:38;33.67;;;23.30;;
6667;SDS011;3370;47.712;9.082;2023-02-23T05:07:04;38.30;;;23.40;;
6667;SDS011;3370;47.712;9.082;2023-02-23T05:09:30;34.43;;;23.20;;
6667;SDS011;3370;47.712;9.082;2023-02-23T05:11:56;38.90;;;24.30;;
6667;SDS011;3370;47.712;9.082;2023-02-23T05:14:22;35.27;;;22.90;;
6667;SDS011;3370;47.712;9.082;2023-02-23T05:16:48;37.53;;;24.43;;
6667;SDS011;3370;47.712;9.082;2023-02-23T05:19:15;39.13;;;23.93;;
6667;SDS011;3370;47.712;9.082;2023-02-23T05:21:40;37.10;;;23.50;;
6667;SDS011;3370;47.712;9.082;2023-02-23T05:24:07;42.40;;;23.60;;
6667;SDS011;3370;47.712;9.082;2023-02-23T05:26:33;35.03;;;23.40;;
6667;SDS011;3370;47.712;9.082;2023-02-23T05:28:59;34.17;;;23.90;;
6667;SDS011;3370;47.712;9.082;2023-02-23T05:31:25;38.27;;;23.13;;
6667;SDS011;3370;47.712;9.082;2023-02-23T05:33:51;37.63;;;23.27;;
6667;SDS011;3370;47.712;9.082;2023-02-23T05:36:17;43.13;;;24.33;;
6667;SDS011;3370;47.712;9.082;2023-02-23T05:38:45;37.17;;;22.77;;
6667;SDS011;3370;47.712;9.082;2023-02-23T05:41:12;39.43;;;24.93;;
6667;SDS011;3370;47.712;9.082;2023-02-23T05:43:41;40.67;;;25.10;;
6667;SDS011;3370;47.712;9.082;2023-02-23T05:46:07;34.83;;;22.93;;
6667;SDS011;3370;47.712;9.082;2023-02-23T05:48:41;45.37;;;25.17;;
6667;SDS011;3370;47.712;9.082;2023-02-23T05:51:08;38.23;;;23.67;;
6667;SDS011;3370;47.712;9.082;2023-02-23T05:53:36;36.10;;;23.20;;
6667;SDS011;3370;47.712;9.082;2023-02-23T05:56:03;39.07;;;23.60;;
6667;SDS011;3370;47.712;9.082;2023-02-23T05:58:32;29.87;;;21.30;;
6667;SDS011;3370;47.712;9.082;2023-02-23T06:00:58;31.97;;;22.13;;
6667;SDS011;3370;47.712;9.082;2023-02-23T06:03:24;38.70;;;23.20;;
6667;SDS011;3370;47.712;9.082;2023-02-23T06:05:51;37.20;;;23.93;;
6667;SDS011;3370;47.712;9.082;2023-02-23T06:08:18;36.40;;;23.70;;
6667;SDS011;3370;47.712;9.082;2023-02-23T06:10:45;40.50;;;26.33;;
6667;SDS011;3370;47.712;9.082;2023-02-23T06:13:12;37.60;;;25.53;;
6667;SDS011;3370;47.712;9.082;2023-02-23T06:15:39;44.07;;;27.43;;
6667;SDS011;3370;47.712;9.082;2023-02-23T06:18:05;42.80;;;26.30;;
6667;SDS011;3370;47.712;9.082;2023-02-23T06:20:32;44.07;;;26.67;;
6667;SDS011;3370;47.712;9.082;2023-02-23T06:22:59;37.40;;;24.20;;
6667;SDS011;3370;47.712;9.082;2023-02-23T06:25:25;44.30;;;27.47;;
6667;SDS011;3370;47.712;9.082;2023-02-23T06:27:51;37.60;;;25.80;;
6667;SDS011;3370;47.712;9.082;2023-02-23T06:30:17;37.60;;;27.63;;
6667;SDS011;3370;47.712;9.082;2023-02-23T06:32:43;43.00;;;28.27;;
6667;SDS011;3370;47.712;9.082;2023-02-23T06:35:09;37.03;;;25.53;;
6667;SDS011;3370;47.712;9.082;2023-02-23T06:37:34;35.23;;;24.37;;
6667;SDS011;3370;47.712;9.082;2023-02-23T06:40:01;40.77;;;26.03;;
6667;SDS011;3370;47.712;9.082;2023-02-23T06:42:28;45.13;;;28.67;;
6667;SDS011;3370;47.712;9.082;2023-02-23T06:44:54;42.10;;;26.97;;
6667;SDS011;3370;47.712;9.082;2023-02-23T06:47:20;45.53;;;26.50;;
6667;SDS011;3370;47.712;9.082;2023-02-23T06:49:45;44.27;;;28.40;;
6667;SDS011;3370;47.712;9.082;2023-02-23T06:52:11;38.00;;;27.53;;
6667;SDS011;3370;47.712;9.082;2023-02-23T06:54:41;38.13;;;26.00;;
6667;SDS011;3370;47.712;9.082;2023-02-23T06:57:07;39.23;;;27.20;;
6667;SDS011;3370;47.712;9.082;2023-02-23T06:59:34;40.47;;;28.57;;
6667;SDS011;3370;47.712;9.082;2023-02-23T07:02:00;41.40;;;28.97;;
6667;SDS011;3370;47.712;9.082;2023-02-23T07:04:30;42.70;;;29.60;;
6667;SDS011;3370;47.712;9.082;2023-02-23T07:06:57;42.93;;;29.27;;
6667;SDS011;3370;47.712;9.082;2023-02-23T07:09:23;40.40;;;27.70;;
6667;SDS011;3370;47.712;9.082;2023-02-23T07:11:49;46.40;;;30.53;;
6667;SDS011;3370;47.712;9.082;2023-02-23T07:14:15;41.80;;;28.80;;
6667;SDS011;3370;47.712;9.082;2023-02-23T07:16:41;41.40;;;29.00;;
6667;SDS011;3370;47.712;9.082;2023-02-23T07:19:07;42.67;;;29.73;;
6667;SDS011;3370;47.712;9.082;2023-02-23T07:21:33;48.73;;;31.17;;
6667;SDS011;3370;47.712;9.082;2023-02-23T07:23:59;42.43;;;30.20;;
6667;SDS011;3370;47.712;9.082;2023-02-23T07:26:27;41.40;;;30.13;;
6667;SDS011;3370;47.712;9.082;2023-02-23T07:28:52;46.30;;;30.50;;
6667;SDS011;3370;47.712;9.082;2023-02-23T07:31:18;47.60;;;31.20;;
6667;SDS011;3370;47.712;9.082;2023-02-23T07:33:44;41.60;;;31.17;;
6667;SDS011;3370;47.712;9.082;2023-02-23T07:36:10;47.67;;;32.67;;
6667;SDS011;3370;47.712;9.082;2023-02-23T07:38:36;47.37;;;29.20;;
6667;SDS011;3370;47.712;9.082;2023-02-23T07:41:02;43.53;;;30.77;;
6667;SDS011;3370;47.712;9.082;2023-02-23T07:43:29;45.67;;;31.97;;
6667;SDS011;3370;47.712;9.082;2023-02-23T07:45:58;40.53;;;29.27;;
6667;SDS011;3370;47.712;9.082;2023-02-23T07:48:25;47.27;;;31.97;;
6667;SDS011;3370;47.712;9.082;2023-02-23T07:50:52;46.00;;;32.07;;
6667;SDS011;3370;47.712;9.082;2023-02-23T07:53:18;47.80;;;32.00;;
6667;SDS011;3370;47.712;9.082;2023-02-23T07:55:44;45.57;;;33.50;;
6667;SDS011;3370;47.712;9.082;2023-02-23T07:58:10;45.67;;;30.87;;
6667;SDS011;3370;47.712;9.082;2023-02-23T08:00:37;47.97;;;32.87;;
6667;SDS011;3370;47.712;9.082;2023-02-23T08:03:04;42.90;;;31.87;;
6667;SDS011;3370;47.712;9.082;2023-02-23T08:05:30;45.27;;;31.87;;
6667;SDS011;3370;47.712;9.082;2023-02-23T08:07:57;49.33;;;32.40;;
6667;SDS011;3370;47.712;9.082;2023-02-23T08:10:23;42.07;;;29.90;;
6667;SDS011;3370;47.712;9.082;2023-02-23T08:12:50;43.97;;;31.17;;
6667;SDS011;3370;47.712;9.082;2023-02-23T08:15:16;45.27;;;30.90;;
6667;SDS011;3370;47.712;9.082;2023-02-23T08:17:41;43.30;;;29.73;;
6667;SDS011;3370;47.712;9.082;2023-02-23T08:20:07;40.90;;;29.13;;
6667;SDS011;3370;47.712;9.082;2023-02-23T08:22:34;41.20;;;27.90;;
6667;SDS011;3370;47.712;9.082;2023-02-23T08:25:00;41.67;;;27.83;;
6667;SDS011;3370;47.712;9.082;2023-02-23T08:27:29;37.63;;;26.87;;
6667;SDS011;3370;47.712;9.082;2023-02-23T08:29:59;45.57;;;29.00;;
6667;SDS011;3370;47.712;9.082;2023-02-23T08:32:27;39.23;;;28.60;;
6667;SDS011;3370;47.712;9.082;2023-02-23T08:34:59;46.47;;;30.90;;
6667;SDS011;3370;47.712;9.082;2023-02-23T08:37:27;45.23;;;32.60;;
6667;SDS011;3370;47.712;9.082;2023-02-23T08:39:54;51.37;;;35.30;;
6667;SDS011;3370;47.712;9.082;2023-02-23T08:42:20;57.10;;;36.90;;
6667;SDS011;3370;47.712;9.082;2023-02-23T08:44:46;52.27;;;32.27;;
6667;SDS011;3370;47.712;9.082;2023-02-23T08:47:15;54.30;;;36.67;;
6667;SDS011;3370;47.712;9.082;2023-02-23T08:49:47;57.90;;;37.80;;
6667;SDS011;3370;47.712;9.082;2023-02-23T08:52:18;54.37;;;37.13;;
6667;SDS011;3370;47.712;9.082;2023-02-23T08:54:45;55.77;;;37.13;;
6667;SDS011;3370;47.712;9.082;2023-02-23T08:57:11;54.73;;;32.80;;
6667;SDS011;3370;47.712;9.082;2023-02-23T08:59:37;55.80;;;36.93;;
6667;SDS011;3370;47.712;9.082;2023-02-23T09:02:05;57.70;;;39.13;;
6667;SDS011;3370;47.712;9.082;2023-02-23T09:04:32;58.50;;;40.20;;
6667;SDS011;3370;47.712;9.082;2023-02-23T09:07:02;59.93;;;37.40;;
6667;SDS011;3370;47.712;9.082;2023-02-23T09:09:29;56.23;;;36.63;;
6667;SDS011;3370;47.712;9.082;2023-02-23T09:11:55;54.03;;;38.23;;
6667;SDS011;3370;47.712;9.082;2023-02-23T09:14:20;52.00;;;36.57;;
6667;SDS011;3370;47.712;9.082;2023-02-23T09:16:46;58.43;;;39.43;;
6667;SDS011;3370;47.712;9.082;2023-02-23T09:19:12;55.30;;;38.03;;
6667;SDS011;3370;47.712;9.082;2023-02-23T09:21:39;52.80;;;38.07;;
6667;SDS011;3370;47.712;9.082;2023-02-23T09:24:05;50.70;;;35.53;;
6667;SDS011;3370;47.712;9.082;2023-02-23T09:26:31;58.00;;;37.63;;
6667;SDS011;3370;47.712;9.082;2023-02-23T09:28:58;56.77;;;38.70;;
6667;SDS011;3370;47.712;9.082;2023-02-23T09:31:26;54.10;;;36.80;;
6667;SDS011;3370;47.712;9.082;2023-02-23T09:33:52;56.97;;;39.80;;
6667;SDS011;3370;47.712;9.082;2023-02-23T09:36:19;55.80;;;35.73;;
6667;SDS011;3370;47.712;9.082;2023-02-23T09:38:50;47.87;;;32.00;;
6667;SDS011;3370;47.712;9.082;2023-02-23T09:47:18;58.07;;;36.03;;
6667;SDS011;3370;47.712;9.082;2023-02-23T09:50:13;51.30;;;33.90;;
6667;SDS011;3370;47.712;9.082;2023-02-23T09:52:54;56.00;;;34.77;;
6667;SDS011;3370;47.712;9.082;2023-02-23T09:55:24;48.50;;;33.50;;
6667;SDS011;3370;47.712;9.082;2023-02-23T09:57:51;52.20;;;35.53;;
6667;SDS011;3370;47.712;9.082;2023-02-23T10:00:22;50.60;;;34.30;;
6667;SDS011;3370;47.712;9.082;2023-02-23T10:03:11;50.93;;;35.47;;
6667;SDS011;3370;47.712;9.082;2023-02-23T10:06:01;43.20;;;29.83;;
6667;SDS011;3370;47.712;9.082;2023-02-23T10:08:40;43.77;;;28.93;;
6667;SDS011;3370;47.712;9.082;2023-02-23T10:17:33;42.00;;;27.93;;
6667;SDS011;3370;47.712;9.082;2023-02-23T10:21:10;43.50;;;31.40;;
6667;SDS011;3370;47.712;9.082;2023-02-23T10:23:30;39.20;;;27.83;;
6667;SDS011;3370;47.712;9.082;2023-02-23T10:26:15;43.10;;;27.40;;
6667;SDS011;3370;47.712;9.082;2023-02-23T10:28:46;40.10;;;28.17;;
6667;SDS011;3370;47.712;9.082;2023-02-23T10:31:18;42.60;;;29.30;;
6667;SDS011;3370;47.712;9.082;2023-02-23T10:33:51;45.17;;;27.30;;
6667;SDS011;3370;47.712;9.082;2023-02-23T10:36:40;42.33;;;28.83;;
6667;SDS011;3370;47.712;9.082;2023-02-23T10:39:16;44.10;;;28.50;;
6667;SDS011;3370;47.712;9.082;2023-02-23T10:41:42;36.80;;;25.87;;
6667;SDS011;3370;47.712;9.082;2023-02-23T10:44:11;38.13;;;23.63;;
6667;SDS011;3370;47.712;9.082;2023-02-23T10:46:49;38.37;;;27.03;;
6667;SDS011;3370;47.712;9.082;2023-02-23T10:49:50;38.43;;;25.87;;
6667;SDS011;3370;47.712;9.082;2023-02-23T10:52:25;33.60;;;25.50;;
6667;SDS011;3370;47.712;9.082;2023-02-23T10:54:58;33.73;;;21.83;;
6667;SDS011;3370;47.712;9.082;2023-02-23T10:57:25;28.47;;;20.20;;
6667;SDS011;3370;47.712;9.082;2023-02-23T11:02:31;27.73;;;19.87;;
6667;SDS011;3370;47.712;9.082;2023-02-23T11:04:58;30.27;;;19.60;;
6667;SDS011;3370;47.712;9.082;2023-02-23T11:07:26;24.70;;;16.20;;
6667;SDS011;3370;47.712;9.082;2023-02-23T11:09:59;18.40;;;15.30;;
6667;SDS011;3370;47.712;9.082;2023-02-23T11:12:52;21.53;;;14.30;;
6667;SDS011;3370;47.712;9.082;2023-02-23T11:17:55;19.60;;;13.60;;
6667;SDS011;3370;47.712;9.082;2023-02-23T11:20:31;19.50;;;15.20;;
6667;SDS011;3370;47.712;9.082;2023-02-23T11:23:07;22.93;;;14.37;;
6667;SDS011;3370;47.712;9.082;2023-02-23T11:25:41;21.17;;;15.90;;
6667;SDS011;3370;47.712;9.082;2023-02-23T11:28:19;21.80;;;16.03;;
6667;SDS011;3370;47.712;9.082;2023-02-23T11:30:50;20.60;;;16.07;;
6667;SDS011;3370;47.712;9.082;2023-02-23T11:33:16;25.03;;;16.50;;
6667;SDS011;3370;47.712;9.082;2023-02-23T11:35:49;21.17;;;16.20;;
6667;SDS011;3370;47.712;9.082;2023-02-23T11:38:25;24.40;;;16.70;;
6667;SDS011;3370;47.712;9.082;2023-02-23T11:40:57;23.30;;;15.63;;
6667;SDS011;3370;47.712;9.082;2023-02-23T11:43:46;21.73;;;16.90;;
6667;SDS011;3370;47.712;9.082;2023-02-23T11:46:17;23.90;;;17.70;;
6667;SDS011;3370;47.712;9.082;2023-02-23T11:48:49;24.80;;;16.57;;
6667;SDS011;3370;47.712;9.082;2023-02-23T11:51:38;22.20;;;17.07;;
6667;SDS011;3370;47.712;9.082;2023-02-23T11:54:31;23.73;;;15.63;;
6667;SDS011;3370;47.712;9.082;2023-02-23T11:56:58;26.03;;;15.23;;
6667;SDS011;3370;47.712;9.082;2023-02-23T11:59:33;20.00;;;14.23;;
6667;SDS011;3370;47.712;9.082;2023-02-23T12:02:05;20.33;;;14.37;;
6667;SDS011;3370;47.712;9.082;2023-02-23T12:05:06;20.90;;;14.33;;
6667;SDS011;3370;47.712;9.082;2023-02-23T12:08:01;18.00;;;13.63;;
6667;SDS011;3370;47.712;9.082;2023-02-23T12:10:58;18.20;;;12.97;;
6667;SDS011;3370;47.712;9.082;2023-02-23T12:16:20;16.67;;;13.10;;
6667;SDS011;3370;47.712;9.082;2023-02-23T12:18:52;20.87;;;13.97;;
6667;SDS011;3370;47.712;9.082;2023-02-23T12:27:12;17.80;;;11.33;;
6667;SDS011;3370;47.712;9.082;2023-02-23T12:33:09;23.17;;;13.07;;
6667;SDS011;3370;47.712;9.082;2023-02-23T12:35:44;20.00;;;12.20;;
6667;SDS011;3370;47.712;9.082;2023-02-23T12:41:02;18.67;;;12.77;;
6667;SDS011;3370;47.712;9.082;2023-02-23T12:43:38;20.10;;;12.97;;
6667;SDS011;3370;47.712;9.082;2023-02-23T12:46:52;20.90;;;12.20;;
6667;SDS011;3370;47.712;9.082;2023-02-23T12:54:43;24.03;;;13.07;;
6667;SDS011;3370;47.712;9.082;2023-02-23T13:06:20;16.70;;;11.20;;
6667;SDS011;3370;47.712;9.082;2023-02-23T13:09:22;23.13;;;11.67;;
6667;SDS011;3370;47.712;9.082;2023-02-23T13:26:40;13.43;;;10.20;;
6667;SDS011;3370;47.712;9.082;2023-02-23T13:29:39;17.77;;;11.93;;
6667;SDS011;3370;47.712;9.082;2023-02-23T13:32:13;15.80;;;10.63;;
6667;SDS011;3370;47.712;9.082;2023-02-23T13:34:52;15.67;;;11.07;;
6667;SDS011;3370;47.712;9.082;2023-02-23T13:37:27;15.53;;;11.50;;
6667;SDS011;3370;47.712;9.082;2023-02-23T13:48:58;17.60;;;12.27;;
6667;SDS011;3370;47.712;9.082;2023-02-23T13:51:40;20.67;;;11.30;;
6667;SDS011;3370;47.712;9.082;2023-02-23T13:54:22;21.20;;;11.03;;
6667;SDS011;3370;47.712;9.082;2023-02-23T13:56:52;17.93;;;11.57;;
6667;SDS011;3370;47.712;9.082;2023-02-23T13:59:27;20.67;;;11.20;;
6667;SDS011;3370;47.712;9.082;2023-02-23T14:02:01;17.20;;;10.27;;
6667;SDS011;3370;47.712;9.082;2023-02-23T14:05:00;19.17;;;10.93;;
6667;SDS011;3370;47.712;9.082;2023-02-23T14:07:51;15.17;;;10.77;;
6667;SDS011;3370;47.712;9.082;2023-02-23T14:10:27;17.33;;;10.70;;
6667;SDS011;3370;47.712;9.082;2023-02-23T14:24:10;17.37;;;9.10;;
6667;SDS011;3370;47.712;9.082;2023-02-23T14:32:43;11.27;;;6.90;;
6667;SDS011;3370;47.712;9.082;2023-02-23T14:35:47;17.00;;;6.50;;
6667;SDS011;3370;47.712;9.082;2023-02-23T14:38:22;14.83;;;7.10;;
6667;SDS011;3370;47.712;9.082;2023-02-23T14:40:54;14.10;;;6.90;;
6667;SDS011;3370;47.712;9.082;2023-02-23T14:43:31;13.17;;;7.90;;
6667;SDS011;3370;47.712;9.082;2023-02-23T14:46:12;19.67;;;7.97;;
6667;SDS011;3370;47.712;9.082;2023-02-23T14:48:54;17.23;;;9.60;;
6667;SDS011;3370;47.712;9.082;2023-02-23T14:53:57;18.60;;;11.37;;
6667;SDS011;3370;47.712;9.082;2023-02-23T14:56:24;18.90;;;10.97;;
6667;SDS011;3370;47.712;9.082;2023-02-23T14:58:51;16.60;;;9.80;;
6667;SDS011;3370;47.712;9.082;2023-02-23T15:01:32;18.90;;;10.70;;
6667;SDS011;3370;47.712;9.082;2023-02-23T15:04:06;13.60;;;9.80;;
6667;SDS011;3370;47.712;9.082;2023-02-23T15:06:36;13.60;;;9.50;;
6667;SDS011;3370;47.712;9.082;2023-02-23T15:09:04;12.90;;;9.30;;
6667;SDS011;3370;47.712;9.082;2023-02-23T15:11:39;14.90;;;9.20;;
6667;SDS011;3370;47.712;9.082;2023-02-23T15:14:08;15.07;;;8.77;;
6667;SDS011;3370;47.712;9.082;2023-02-23T15:16:39;16.03;;;8.30;;
6667;SDS011;3370;47.712;9.082;2023-02-23T15:19:09;20.80;;;9.30;;
6667;SDS011;3370;47.712;9.082;2023-02-23T15:21:47;12.73;;;8.80;;
6667;SDS011;3370;47.712;9.082;2023-02-23T15:24:24;20.00;;;9.90;;
6667;SDS011;3370;47.712;9.082;2023-02-23T15:26:55;18.63;;;9.10;;
6667;SDS011;3370;47.712;9.082;2023-02-23T15:29:22;19.30;;;8.63;;
6667;SDS011;3370;47.712;9.082;2023-02-23T15:32:09;15.27;;;9.23;;
6667;SDS011;3370;47.712;9.082;2023-02-23T15:34:42;13.33;;;9.53;;
6667;SDS011;3370;47.712;9.082;2023-02-23T15:42:18;17.63;;;9.00;;
6667;SDS011;3370;47.712;9.082;2023-02-23T15:45:01;18.77;;;10.97;;
6667;SDS011;3370;47.712;9.082;2023-02-23T15:47:38;11.70;;;9.50;;
6667;SDS011;3370;47.712;9.082;2023-02-23T15:50:13;14.43;;;9.70;;
6667;SDS011;3370;47.712;9.082;2023-02-23T15:52:44;20.63;;;9.90;;
6667;SDS011;3370;47.712;9.082;2023-02-23T15:55:41;12.90;;;9.53;;
6667;SDS011;3370;47.712;9.082;2023-02-23T15:58:11;16.77;;;10.17;;
6667;SDS011;3370;47.712;9.082;2023-02-23T16:00:48;13.20;;;9.03;;
6667;SDS011;3370;47.712;9.082;2023-02-23T16:03:21;14.57;;;8.37;;
6667;SDS011;3370;47.712;9.082;2023-02-23T16:06:04;20.53;;;9.00;;
6667;SDS011;3370;47.712;9.082;2023-02-23T16:09:01;15.97;;;9.53;;
6667;SDS011;3370;47.712;9.082;2023-02-23T16:11:55;20.10;;;9.20;;
6667;SDS011;3370;47.712;9.082;2023-02-23T16:14:44;14.40;;;8.93;;
6667;SDS011;3370;47.712;9.082;2023-02-23T16:17:24;14.90;;;8.60;;
6667;SDS011;3370;47.712;9.082;2023-02-23T16:20:26;15.50;;;7.33;;
6667;SDS011;3370;47.712;9.082;2023-02-23T16:23:02;12.03;;;8.30;;
6667;SDS011;3370;47.712;9.082;2023-02-23T16:25:31;11.93;;;8.67;;
6667;SDS011;3370;47.712;9.082;2023-02-23T16:28:02;14.87;;;8.87;;
6667;SDS011;3370;47.712;9.082;2023-02-23T16:30:41;13.30;;;8.20;;
6667;SDS011;3370;47.712;9.082;2023-02-23T16:33:19;13.67;;;8.53;;
6667;SDS011;3370;47.712;9.082;2023-02-23T16:35:49;14.73;;;9.10;;
6667;SDS011;3370;47.712;9.082;2023-02-23T16:38:33;12.80;;;7.73;;
6667;SDS011;3370;47.712;9.082;2023-02-23T16:41:02;14.80;;;8.27;;
6667;SDS011;3370;47.712;9.082;2023-02-23T16:43:30;16.83;;;8.83;;
6667;SDS011;3370;47.712;9.082;2023-02-23T16:45:59;17.70;;;8.80;;
6667;SDS011;3370;47.712;9.082;2023-02-23T16:48:25;11.50;;;7.10;;
6667;SDS011;3370;47.712;9.082;2023-02-23T16:50:51;10.57;;;7.30;;
6667;SDS011;3370;47.712;9.082;2023-02-23T16:53:17;15.00;;;7.30;;
6667;SDS011;3370;47.712;9.082;2023-02-23T16:55:48;12.23;;;7.63;;
6667;SDS011;3370;47.712;9.082;2023-02-23T16:58:25;15.37;;;6.77;;
6667;SDS011;3370;47.712;9.082;2023-02-23T17:00:54;13.53;;;6.60;;
6667;SDS011;3370;47.712;9.082;2023-02-23T17:03:21;11.77;;;6.13;;
6667;SDS011;3370;47.712;9.082;2023-02-23T17:05:52;8.20;;;5.80;;
6667;SDS011;3370;47.712;9.082;2023-02-23T17:08:18;11.63;;;5.93;;
6667;SDS011;3370;47.712;9.082;2023-02-23T17:10:47;13.30;;;5.90;;
6667;SDS011;3370;47.712;9.082;2023-02-23T17:13:20;13.00;;;5.33;;
6667;SDS011;3370;47.712;9.082;2023-02-23T17:15:48;11.20;;;5.57;;
6667;SDS011;3370;47.712;9.082;2023-02-23T17:18:18;13.90;;;5.70;;
6667;SDS011;3370;47.712;9.082;2023-02-23T17:20:47;13.83;;;5.10;;
6667;SDS011;3370;47.712;9.082;2023-02-23T17:23:18;11.70;;;5.57;;
6667;SDS011;3370;47.712;9.082;2023-02-23T17:25:45;10.50;;;4.90;;
6667;SDS011;3370;47.712;9.082;2023-02-23T17:28:11;8.43;;;4.93;;
6667;SDS011;3370;47.712;9.082;2023-02-23T17:30:38;7.23;;;5.00;;
6667;SDS011;3370;47.712;9.082;2023-02-23T17:33:06;11.03;;;5.70;;
6667;SDS011;3370;47.712;9.082;2023-02-23T17:35:33;14.57;;;7.33;;
6667;SDS011;3370;47.712;9.082;2023-02-23T17:38:05;8.67;;;5.40;;
6667;SDS011;3370;47.712;9.082;2023-02-23T17:40:32;8.73;;;5.60;;
6667;SDS011;3370;47.712;9.082;2023-02-23T17:42:59;79.70;;;37.27;;
6667;SDS011;3370;47.712;9.082;2023-02-23T17:45:27;14.27;;;6.80;;
6667;SDS011;3370;47.712;9.082;2023-02-23T17:47:53;15.13;;;7.40;;
6667;SDS011;3370;47.712;9.082;2023-02-23T17:50:20;18.17;;;10.37;;
6667;SDS011;3370;47.712;9.082;2023-02-23T17:52:47;15.20;;;9.20;;
6667;SDS011;3370;47.712;9.082;2023-02-23T17:55:14;19.40;;;9.87;;